sensor_id;sensor_type;location;lat;lon;timestamp;P1;durP1;ratioP1;P2;durP2;ratioP2
70420;SDS011;57848;51.938;15.520;2023-03-08T00:00:50;6.50;;;2.22;;
70420;SDS011;57848;51.938;15.520;2023-03-08T00:03:15;8.97;;;2.40;;
70420;SDS011;57848;51.938;15.520;2023-03-08T00:05:40;8.80;;;3.20;;
70420;SDS011;57848;51.938;15.520;2023-03-08T00:08:07;11.38;;;3.03;;
70420;SDS011;57848;51.938;15.520;2023-03-08T00:10:32;10.53;;;3.13;;
70420;SDS011;57848;51.938;15.520;2023-03-08T00:12:58;8.98;;;2.92;;
70420;SDS011;57848;51.938;15.520;2023-03-08T00:15:23;9.80;;;3.40;;
70420;SDS011;57848;51.938;15.520;2023-03-08T00:17:49;8.20;;;2.73;;
70420;SDS011;57848;51.938;15.520;2023-03-08T00:20:14;7.57;;;2.75;;
70420;SDS011;57848;51.938;15.520;2023-03-08T00:22:40;7.80;;;2.53;;
70420;SDS011;57848;51.938;15.520;2023-03-08T00:25:07;8.57;;;3.20;;
70420;SDS011;57848;51.938;15.520;2023-03-08T00:27:34;8.40;;;2.87;;
70420;SDS011;57848;51.938;15.520;2023-03-08T00:30:00;8.63;;;2.90;;
70420;SDS011;57848;51.938;15.520;2023-03-08T00:32:27;7.72;;;2.55;;
70420;SDS011;57848;51.938;15.520;2023-03-08T00:34:52;9.77;;;2.63;;
70420;SDS011;57848;51.938;15.520;2023-03-08T00:37:18;6.75;;;2.50;;
70420;SDS011;57848;51.938;15.520;2023-03-08T00:39:54;7.80;;;2.33;;
70420;SDS011;57848;51.938;15.520;2023-03-08T00:42:19;6.93;;;2.50;;
70420;SDS011;57848;51.938;15.520;2023-03-08T00:44:46;6.95;;;2.50;;
70420;SDS011;57848;51.938;15.520;2023-03-08T00:47:11;6.50;;;2.30;;
70420;SDS011;57848;51.938;15.520;2023-03-08T00:49:38;10.37;;;2.30;;
70420;SDS011;57848;51.938;15.520;2023-03-08T00:52:04;6.78;;;2.53;;
70420;SDS011;57848;51.938;15.520;2023-03-08T00:54:30;8.57;;;2.47;;
70420;SDS011;57848;51.938;15.520;2023-03-08T00:56:56;9.60;;;2.28;;
70420;SDS011;57848;51.938;15.520;2023-03-08T00:59:21;6.82;;;1.92;;
70420;SDS011;57848;51.938;15.520;2023-03-08T01:01:47;7.43;;;2.27;;
70420;SDS011;57848;51.938;15.520;2023-03-08T01:04:13;7.45;;;2.42;;
70420;SDS011;57848;51.938;15.520;2023-03-08T01:06:38;8.10;;;2.40;;
70420;SDS011;57848;51.938;15.520;2023-03-08T01:09:07;8.55;;;2.90;;
70420;SDS011;57848;51.938;15.520;2023-03-08T01:11:33;9.27;;;2.80;;
70420;SDS011;57848;51.938;15.520;2023-03-08T01:14:00;6.57;;;2.20;;
70420;SDS011;57848;51.938;15.520;2023-03-08T01:16:27;7.47;;;2.85;;
70420;SDS011;57848;51.938;15.520;2023-03-08T01:18:57;8.80;;;2.70;;
70420;SDS011;57848;51.938;15.520;2023-03-08T01:21:24;7.78;;;2.70;;
70420;SDS011;57848;51.938;15.520;2023-03-08T01:23:50;9.00;;;2.83;;
70420;SDS011;57848;51.938;15.520;2023-03-08T01:26:17;7.82;;;2.20;;
70420;SDS011;57848;51.938;15.520;2023-03-08T01:28:45;7.57;;;2.70;;
70420;SDS011;57848;51.938;15.520;2023-03-08T01:31:21;7.95;;;2.78;;
70420;SDS011;57848;51.938;15.520;2023-03-08T01:33:49;7.60;;;2.40;;
70420;SDS011;57848;51.938;15.520;2023-03-08T01:36:17;6.80;;;2.60;;
70420;SDS011;57848;51.938;15.520;2023-03-08T01:38:44;9.70;;;3.30;;
70420;SDS011;57848;51.938;15.520;2023-03-08T01:41:14;7.28;;;2.88;;
70420;SDS011;57848;51.938;15.520;2023-03-08T01:43:42;9.73;;;3.20;;
70420;SDS011;57848;51.938;15.520;2023-03-08T01:46:18;9.55;;;2.90;;
70420;SDS011;57848;51.938;15.520;2023-03-08T01:48:55;9.75;;;3.47;;
70420;SDS011;57848;51.938;15.520;2023-03-08T01:51:30;9.50;;;3.65;;
70420;SDS011;57848;51.938;15.520;2023-03-08T01:53:57;8.70;;;3.10;;
70420;SDS011;57848;51.938;15.520;2023-03-08T01:56:24;8.10;;;3.05;;
70420;SDS011;57848;51.938;15.520;2023-03-08T01:58:51;9.18;;;3.80;;
70420;SDS011;57848;51.938;15.520;2023-03-08T02:01:17;10.15;;;4.32;;
70420;SDS011;57848;51.938;15.520;2023-03-08T02:03:45;8.70;;;3.40;;
70420;SDS011;57848;51.938;15.520;2023-03-08T02:06:13;11.98;;;3.78;;
70420;SDS011;57848;51.938;15.520;2023-03-08T02:08:41;9.13;;;3.85;;
70420;SDS011;57848;51.938;15.520;2023-03-08T02:11:06;12.00;;;4.17;;
70420;SDS011;57848;51.938;15.520;2023-03-08T02:13:32;11.97;;;4.10;;
70420;SDS011;57848;51.938;15.520;2023-03-08T02:15:58;11.82;;;4.20;;
70420;SDS011;57848;51.938;15.520;2023-03-08T02:18:28;9.75;;;4.03;;
70420;SDS011;57848;51.938;15.520;2023-03-08T02:20:53;8.30;;;3.47;;
70420;SDS011;57848;51.938;15.520;2023-03-08T02:23:19;12.07;;;3.97;;
70420;SDS011;57848;51.938;15.520;2023-03-08T02:28:16;10.68;;;3.88;;
70420;SDS011;57848;51.938;15.520;2023-03-08T02:30:44;9.60;;;4.23;;
70420;SDS011;57848;51.938;15.520;2023-03-08T02:33:09;10.98;;;3.72;;
70420;SDS011;57848;51.938;15.520;2023-03-08T02:35:35;12.90;;;4.47;;
70420;SDS011;57848;51.938;15.520;2023-03-08T02:38:03;10.98;;;4.85;;
70420;SDS011;57848;51.938;15.520;2023-03-08T02:40:30;10.70;;;4.20;;
70420;SDS011;57848;51.938;15.520;2023-03-08T02:42:55;12.18;;;4.15;;
70420;SDS011;57848;51.938;15.520;2023-03-08T02:45:21;16.10;;;4.27;;
70420;SDS011;57848;51.938;15.520;2023-03-08T02:47:47;15.80;;;4.85;;
70420;SDS011;57848;51.938;15.520;2023-03-08T02:50:13;11.63;;;4.30;;
70420;SDS011;57848;51.938;15.520;2023-03-08T02:52:38;14.70;;;4.57;;
70420;SDS011;57848;51.938;15.520;2023-03-08T02:55:04;9.80;;;3.93;;
70420;SDS011;57848;51.938;15.520;2023-03-08T02:57:29;11.02;;;3.90;;
70420;SDS011;57848;51.938;15.520;2023-03-08T02:59:55;10.37;;;4.17;;
70420;SDS011;57848;51.938;15.520;2023-03-08T03:02:21;14.13;;;4.77;;
70420;SDS011;57848;51.938;15.520;2023-03-08T03:04:46;10.73;;;4.53;;
70420;SDS011;57848;51.938;15.520;2023-03-08T03:07:12;16.53;;;4.10;;
70420;SDS011;57848;51.938;15.520;2023-03-08T03:09:38;11.37;;;4.53;;
70420;SDS011;57848;51.938;15.520;2023-03-08T03:12:03;10.50;;;3.90;;
70420;SDS011;57848;51.938;15.520;2023-03-08T03:14:32;11.30;;;4.30;;
70420;SDS011;57848;51.938;15.520;2023-03-08T03:16:58;9.20;;;4.07;;
70420;SDS011;57848;51.938;15.520;2023-03-08T03:19:24;12.25;;;4.20;;
70420;SDS011;57848;51.938;15.520;2023-03-08T03:21:49;11.17;;;4.43;;
70420;SDS011;57848;51.938;15.520;2023-03-08T03:24:15;10.90;;;4.03;;
70420;SDS011;57848;51.938;15.520;2023-03-08T03:26:50;11.57;;;3.77;;
70420;SDS011;57848;51.938;15.520;2023-03-08T03:29:16;9.93;;;4.50;;
70420;SDS011;57848;51.938;15.520;2023-03-08T03:31:44;10.32;;;4.30;;
70420;SDS011;57848;51.938;15.520;2023-03-08T03:34:10;9.07;;;3.78;;
70420;SDS011;57848;51.938;15.520;2023-03-08T03:36:37;14.00;;;4.55;;
70420;SDS011;57848;51.938;15.520;2023-03-08T03:39:02;13.43;;;3.70;;
70420;SDS011;57848;51.938;15.520;2023-03-08T03:41:30;8.93;;;3.67;;
70420;SDS011;57848;51.938;15.520;2023-03-08T03:44:06;10.00;;;3.83;;
70420;SDS011;57848;51.938;15.520;2023-03-08T03:46:33;11.25;;;3.80;;
70420;SDS011;57848;51.938;15.520;2023-03-08T03:48:58;9.43;;;3.67;;
70420;SDS011;57848;51.938;15.520;2023-03-08T03:51:29;12.95;;;4.00;;
70420;SDS011;57848;51.938;15.520;2023-03-08T03:54:06;11.43;;;4.30;;
70420;SDS011;57848;51.938;15.520;2023-03-08T03:56:31;8.23;;;3.37;;
70420;SDS011;57848;51.938;15.520;2023-03-08T03:58:58;10.30;;;4.10;;
70420;SDS011;57848;51.938;15.520;2023-03-08T04:01:27;11.43;;;3.67;;
70420;SDS011;57848;51.938;15.520;2023-03-08T04:04:00;8.20;;;3.60;;
70420;SDS011;57848;51.938;15.520;2023-03-08T04:06:28;12.43;;;3.57;;
70420;SDS011;57848;51.938;15.520;2023-03-08T04:08:59;9.95;;;3.70;;
70420;SDS011;57848;51.938;15.520;2023-03-08T04:11:31;9.25;;;3.85;;
70420;SDS011;57848;51.938;15.520;2023-03-08T04:13:58;11.13;;;4.10;;
70420;SDS011;57848;51.938;15.520;2023-03-08T04:16:27;10.75;;;4.07;;
70420;SDS011;57848;51.938;15.520;2023-03-08T04:18:55;10.93;;;3.73;;
70420;SDS011;57848;51.938;15.520;2023-03-08T04:21:24;14.65;;;4.03;;
70420;SDS011;57848;51.938;15.520;2023-03-08T04:23:53;11.02;;;4.15;;
70420;SDS011;57848;51.938;15.520;2023-03-08T04:26:20;13.60;;;4.20;;
70420;SDS011;57848;51.938;15.520;2023-03-08T04:28:47;14.85;;;4.22;;
70420;SDS011;57848;51.938;15.520;2023-03-08T04:31:16;13.13;;;4.63;;
70420;SDS011;57848;51.938;15.520;2023-03-08T04:33:45;11.10;;;4.28;;
70420;SDS011;57848;51.938;15.520;2023-03-08T04:36:12;13.27;;;4.30;;
70420;SDS011;57848;51.938;15.520;2023-03-08T04:38:38;10.93;;;3.97;;
70420;SDS011;57848;51.938;15.520;2023-03-08T04:41:05;10.00;;;3.28;;
70420;SDS011;57848;51.938;15.520;2023-03-08T04:43:47;10.10;;;4.00;;
70420;SDS011;57848;51.938;15.520;2023-03-08T04:46:18;10.63;;;4.07;;
70420;SDS011;57848;51.938;15.520;2023-03-08T04:48:45;21.60;;;5.22;;
70420;SDS011;57848;51.938;15.520;2023-03-08T04:51:14;16.00;;;5.13;;
70420;SDS011;57848;51.938;15.520;2023-03-08T04:53:40;12.35;;;4.15;;
70420;SDS011;57848;51.938;15.520;2023-03-08T04:56:08;13.02;;;4.38;;
70420;SDS011;57848;51.938;15.520;2023-03-08T04:58:34;11.23;;;4.17;;
70420;SDS011;57848;51.938;15.520;2023-03-08T05:01:06;12.80;;;4.47;;
70420;SDS011;57848;51.938;15.520;2023-03-08T05:03:41;15.10;;;4.75;;
70420;SDS011;57848;51.938;15.520;2023-03-08T05:06:08;13.73;;;4.20;;
70420;SDS011;57848;51.938;15.520;2023-03-08T05:08:35;12.70;;;3.87;;
70420;SDS011;57848;51.938;15.520;2023-03-08T05:11:01;16.25;;;5.18;;
70420;SDS011;57848;51.938;15.520;2023-03-08T05:13:33;14.40;;;4.63;;
70420;SDS011;57848;51.938;15.520;2023-03-08T05:16:00;12.85;;;4.80;;
70420;SDS011;57848;51.938;15.520;2023-03-08T05:18:27;16.67;;;5.03;;
70420;SDS011;57848;51.938;15.520;2023-03-08T05:20:56;12.63;;;4.83;;
70420;SDS011;57848;51.938;15.520;2023-03-08T05:23:24;12.77;;;4.60;;
70420;SDS011;57848;51.938;15.520;2023-03-08T05:25:51;11.35;;;4.35;;
70420;SDS011;57848;51.938;15.520;2023-03-08T05:28:21;14.47;;;5.80;;
70420;SDS011;57848;51.938;15.520;2023-03-08T05:30:48;16.10;;;5.63;;
70420;SDS011;57848;51.938;15.520;2023-03-08T05:33:15;13.18;;;4.70;;
70420;SDS011;57848;51.938;15.520;2023-03-08T05:35:41;16.27;;;5.53;;
70420;SDS011;57848;51.938;15.520;2023-03-08T05:38:07;20.83;;;5.60;;
70420;SDS011;57848;51.938;15.520;2023-03-08T05:40:33;15.73;;;5.70;;
70420;SDS011;57848;51.938;15.520;2023-03-08T05:42:59;15.75;;;6.30;;
70420;SDS011;57848;51.938;15.520;2023-03-08T05:45:25;17.60;;;6.17;;
70420;SDS011;57848;51.938;15.520;2023-03-08T05:47:51;17.42;;;6.63;;
70420;SDS011;57848;51.938;15.520;2023-03-08T05:50:17;15.43;;;6.50;;
70420;SDS011;57848;51.938;15.520;2023-03-08T05:52:43;16.92;;;6.80;;
70420;SDS011;57848;51.938;15.520;2023-03-08T05:55:13;17.67;;;6.80;;
70420;SDS011;57848;51.938;15.520;2023-03-08T05:57:40;15.93;;;6.95;;
70420;SDS011;57848;51.938;15.520;2023-03-08T06:00:05;16.67;;;7.00;;
70420;SDS011;57848;51.938;15.520;2023-03-08T06:02:40;16.92;;;7.25;;
70420;SDS011;57848;51.938;15.520;2023-03-08T06:05:06;13.67;;;6.13;;
70420;SDS011;57848;51.938;15.520;2023-03-08T06:07:32;17.02;;;6.60;;
70420;SDS011;57848;51.938;15.520;2023-03-08T06:10:04;17.95;;;6.78;;
70420;SDS011;57848;51.938;15.520;2023-03-08T06:12:30;15.55;;;6.50;;
70420;SDS011;57848;51.938;15.520;2023-03-08T06:15:00;15.43;;;6.03;;
70420;SDS011;57848;51.938;15.520;2023-03-08T06:17:28;19.60;;;8.23;;
70420;SDS011;57848;51.938;15.520;2023-03-08T06:19:55;15.45;;;7.53;;
70420;SDS011;57848;51.938;15.520;2023-03-08T06:22:21;14.50;;;6.28;;
70420;SDS011;57848;51.938;15.520;2023-03-08T06:24:47;15.20;;;5.97;;
70420;SDS011;57848;51.938;15.520;2023-03-08T06:27:16;21.33;;;7.57;;
70420;SDS011;57848;51.938;15.520;2023-03-08T06:29:44;15.55;;;7.00;;
70420;SDS011;57848;51.938;15.520;2023-03-08T06:32:09;16.20;;;6.70;;
70420;SDS011;57848;51.938;15.520;2023-03-08T06:34:38;14.45;;;5.68;;
70420;SDS011;57848;51.938;15.520;2023-03-08T06:37:03;13.52;;;5.82;;
70420;SDS011;57848;51.938;15.520;2023-03-08T06:39:29;13.27;;;5.33;;
70420;SDS011;57848;51.938;15.520;2023-03-08T06:41:57;11.57;;;4.90;;
70420;SDS011;57848;51.938;15.520;2023-03-08T06:44:22;14.70;;;6.47;;
70420;SDS011;57848;51.938;15.520;2023-03-08T06:46:47;15.67;;;6.00;;
70420;SDS011;57848;51.938;15.520;2023-03-08T06:49:13;14.53;;;6.27;;
70420;SDS011;57848;51.938;15.520;2023-03-08T06:51:38;17.03;;;6.53;;
70420;SDS011;57848;51.938;15.520;2023-03-08T06:54:04;15.82;;;6.18;;
70420;SDS011;57848;51.938;15.520;2023-03-08T06:56:30;17.40;;;6.73;;
70420;SDS011;57848;51.938;15.520;2023-03-08T06:58:56;15.00;;;6.13;;
70420;SDS011;57848;51.938;15.520;2023-03-08T07:01:22;15.53;;;6.10;;
70420;SDS011;57848;51.938;15.520;2023-03-08T07:03:47;16.40;;;6.73;;
70420;SDS011;57848;51.938;15.520;2023-03-08T07:06:13;15.45;;;7.13;;
70420;SDS011;57848;51.938;15.520;2023-03-08T07:08:39;20.67;;;7.27;;
70420;SDS011;57848;51.938;15.520;2023-03-08T07:11:05;16.23;;;6.97;;
70420;SDS011;57848;51.938;15.520;2023-03-08T07:13:32;18.98;;;7.35;;
70420;SDS011;57848;51.938;15.520;2023-03-08T07:16:03;19.00;;;7.15;;
70420;SDS011;57848;51.938;15.520;2023-03-08T07:18:30;15.90;;;6.90;;
70420;SDS011;57848;51.938;15.520;2023-03-08T07:20:55;20.73;;;7.90;;
70420;SDS011;57848;51.938;15.520;2023-03-08T07:23:21;20.45;;;9.57;;
70420;SDS011;57848;51.938;15.520;2023-03-08T07:25:47;20.63;;;9.00;;
70420;SDS011;57848;51.938;15.520;2023-03-08T07:28:12;25.13;;;9.73;;
70420;SDS011;57848;51.938;15.520;2023-03-08T07:30:38;26.02;;;10.05;;
70420;SDS011;57848;51.938;15.520;2023-03-08T07:33:03;24.63;;;10.23;;
70420;SDS011;57848;51.938;15.520;2023-03-08T07:35:29;22.20;;;8.93;;
70420;SDS011;57848;51.938;15.520;2023-03-08T07:37:54;19.83;;;8.35;;
70420;SDS011;57848;51.938;15.520;2023-03-08T07:40:20;17.87;;;8.00;;
70420;SDS011;57848;51.938;15.520;2023-03-08T07:42:45;19.30;;;8.10;;
70420;SDS011;57848;51.938;15.520;2023-03-08T07:45:26;19.27;;;7.90;;
70420;SDS011;57848;51.938;15.520;2023-03-08T07:47:51;19.93;;;8.73;;
70420;SDS011;57848;51.938;15.520;2023-03-08T07:50:17;21.63;;;9.43;;
70420;SDS011;57848;51.938;15.520;2023-03-08T07:52:43;24.20;;;9.23;;
70420;SDS011;57848;51.938;15.520;2023-03-08T07:55:09;22.02;;;10.05;;
70420;SDS011;57848;51.938;15.520;2023-03-08T07:57:35;21.37;;;8.07;;
70420;SDS011;57848;51.938;15.520;2023-03-08T08:00:01;22.38;;;8.93;;
70420;SDS011;57848;51.938;15.520;2023-03-08T08:02:37;29.10;;;10.10;;
70420;SDS011;57848;51.938;15.520;2023-03-08T08:05:03;23.60;;;9.93;;
70420;SDS011;57848;51.938;15.520;2023-03-08T08:07:29;22.92;;;10.32;;
70420;SDS011;57848;51.938;15.520;2023-03-08T08:09:55;19.83;;;9.43;;
70420;SDS011;57848;51.938;15.520;2023-03-08T08:12:20;17.93;;;8.33;;
70420;SDS011;57848;51.938;15.520;2023-03-08T08:14:47;18.55;;;8.02;;
70420;SDS011;57848;51.938;15.520;2023-03-08T08:17:16;21.40;;;8.98;;
70420;SDS011;57848;51.938;15.520;2023-03-08T08:19:43;22.08;;;8.05;;
70420;SDS011;57848;51.938;15.520;2023-03-08T08:22:08;21.30;;;9.87;;
70420;SDS011;57848;51.938;15.520;2023-03-08T08:24:33;19.80;;;9.13;;
70420;SDS011;57848;51.938;15.520;2023-03-08T08:26:59;18.63;;;7.82;;
70420;SDS011;57848;51.938;15.520;2023-03-08T08:29:25;18.47;;;8.43;;
70420;SDS011;57848;51.938;15.520;2023-03-08T08:31:50;18.33;;;7.77;;
70420;SDS011;57848;51.938;15.520;2023-03-08T08:34:19;21.33;;;8.63;;
70420;SDS011;57848;51.938;15.520;2023-03-08T08:36:45;21.55;;;9.10;;
70420;SDS011;57848;51.938;15.520;2023-03-08T08:39:11;22.10;;;8.50;;
70420;SDS011;57848;51.938;15.520;2023-03-08T08:41:36;18.13;;;8.40;;
70420;SDS011;57848;51.938;15.520;2023-03-08T08:44:02;18.17;;;8.10;;
70420;SDS011;57848;51.938;15.520;2023-03-08T08:46:28;19.27;;;7.78;;
70420;SDS011;57848;51.938;15.520;2023-03-08T08:48:55;17.90;;;8.13;;
70420;SDS011;57848;51.938;15.520;2023-03-08T08:51:22;21.00;;;8.10;;
70420;SDS011;57848;51.938;15.520;2023-03-08T08:53:47;17.88;;;7.57;;
70420;SDS011;57848;51.938;15.520;2023-03-08T08:56:15;19.93;;;8.50;;
70420;SDS011;57848;51.938;15.520;2023-03-08T08:58:50;19.88;;;8.50;;
70420;SDS011;57848;51.938;15.520;2023-03-08T09:01:20;21.77;;;8.50;;
70420;SDS011;57848;51.938;15.520;2023-03-08T09:03:47;19.77;;;8.15;;
70420;SDS011;57848;51.938;15.520;2023-03-08T09:06:13;16.90;;;7.13;;
70420;SDS011;57848;51.938;15.520;2023-03-08T09:08:40;17.88;;;7.03;;
70420;SDS011;57848;51.938;15.520;2023-03-08T09:11:06;18.37;;;7.63;;
70420;SDS011;57848;51.938;15.520;2023-03-08T09:13:33;16.38;;;7.80;;
70420;SDS011;57848;51.938;15.520;2023-03-08T09:15:58;16.30;;;7.80;;
70420;SDS011;57848;51.938;15.520;2023-03-08T09:18:24;17.20;;;7.47;;
70420;SDS011;57848;51.938;15.520;2023-03-08T09:20:50;23.65;;;9.77;;
70420;SDS011;57848;51.938;15.520;2023-03-08T09:23:15;18.35;;;7.68;;
70420;SDS011;57848;51.938;15.520;2023-03-08T09:25:41;17.83;;;8.20;;
70420;SDS011;57848;51.938;15.520;2023-03-08T09:28:07;20.60;;;8.48;;
70420;SDS011;57848;51.938;15.520;2023-03-08T09:30:32;20.10;;;8.50;;
70420;SDS011;57848;51.938;15.520;2023-03-08T09:32:58;21.00;;;9.20;;
70420;SDS011;57848;51.938;15.520;2023-03-08T09:35:23;20.55;;;7.88;;
70420;SDS011;57848;51.938;15.520;2023-03-08T09:37:49;17.60;;;7.93;;
70420;SDS011;57848;51.938;15.520;2023-03-08T09:40:22;15.53;;;6.77;;
70420;SDS011;57848;51.938;15.520;2023-03-08T09:42:50;17.65;;;7.90;;
70420;SDS011;57848;51.938;15.520;2023-03-08T09:45:17;18.27;;;8.15;;
70420;SDS011;57848;51.938;15.520;2023-03-08T09:53:31;18.00;;;6.83;;
70420;SDS011;57848;51.938;15.520;2023-03-08T09:56:03;14.73;;;6.80;;
70420;SDS011;57848;51.938;15.520;2023-03-08T09:58:38;15.50;;;6.85;;
70420;SDS011;57848;51.938;15.520;2023-03-08T10:09:36;13.43;;;6.45;;
70420;SDS011;57848;51.938;15.520;2023-03-08T10:14:49;13.95;;;6.47;;
70420;SDS011;57848;51.938;15.520;2023-03-08T10:17:19;15.18;;;6.63;;
70420;SDS011;57848;51.938;15.520;2023-03-08T10:19:51;13.77;;;6.50;;
70420;SDS011;57848;51.938;15.520;2023-03-08T10:22:29;15.15;;;6.20;;
70420;SDS011;57848;51.938;15.520;2023-03-08T10:25:04;16.00;;;7.47;;
70420;SDS011;57848;51.938;15.520;2023-03-08T10:27:50;17.60;;;6.68;;
70420;SDS011;57848;51.938;15.520;2023-03-08T10:30:19;12.75;;;6.65;;
70420;SDS011;57848;51.938;15.520;2023-03-08T10:32:47;14.83;;;6.07;;
70420;SDS011;57848;51.938;15.520;2023-03-08T10:35:15;11.10;;;5.28;;
70420;SDS011;57848;51.938;15.520;2023-03-08T10:37:42;10.93;;;5.15;;
70420;SDS011;57848;51.938;15.520;2023-03-08T10:40:15;14.95;;;5.63;;
70420;SDS011;57848;51.938;15.520;2023-03-08T10:42:51;14.65;;;6.60;;
70420;SDS011;57848;51.938;15.520;2023-03-08T10:45:21;10.97;;;5.50;;
70420;SDS011;57848;51.938;15.520;2023-03-08T10:47:55;11.35;;;5.55;;
70420;SDS011;57848;51.938;15.520;2023-03-08T10:50:25;13.55;;;5.70;;
70420;SDS011;57848;51.938;15.520;2023-03-08T10:52:52;10.65;;;5.90;;
70420;SDS011;57848;51.938;15.520;2023-03-08T10:58:00;12.77;;;5.90;;
70420;SDS011;57848;51.938;15.520;2023-03-08T11:00:30;16.07;;;6.73;;
70420;SDS011;57848;51.938;15.520;2023-03-08T11:03:14;11.63;;;6.05;;
70420;SDS011;57848;51.938;15.520;2023-03-08T11:05:53;11.55;;;5.97;;
70420;SDS011;57848;51.938;15.520;2023-03-08T11:08:22;13.00;;;6.18;;
70420;SDS011;57848;51.938;15.520;2023-03-08T11:11:09;12.05;;;5.60;;
70420;SDS011;57848;51.938;15.520;2023-03-08T11:13:43;15.37;;;5.93;;
70420;SDS011;57848;51.938;15.520;2023-03-08T11:18:56;11.20;;;5.80;;
70420;SDS011;57848;51.938;15.520;2023-03-08T11:24:38;15.50;;;6.10;;
70420;SDS011;57848;51.938;15.520;2023-03-08T11:39:38;13.70;;;5.72;;
70420;SDS011;57848;51.938;15.520;2023-03-08T11:47:50;12.77;;;5.28;;
70420;SDS011;57848;51.938;15.520;2023-03-08T11:51:02;10.77;;;5.03;;
70420;SDS011;57848;51.938;15.520;2023-03-08T11:55:52;15.93;;;5.40;;
70420;SDS011;57848;51.938;15.520;2023-03-08T11:58:30;12.98;;;5.35;;
70420;SDS011;57848;51.938;15.520;2023-03-08T12:01:01;17.70;;;6.28;;
70420;SDS011;57848;51.938;15.520;2023-03-08T12:03:37;14.03;;;6.33;;
70420;SDS011;57848;51.938;15.520;2023-03-08T12:06:11;14.05;;;5.85;;
70420;SDS011;57848;51.938;15.520;2023-03-08T12:08:48;13.07;;;6.18;;
70420;SDS011;57848;51.938;15.520;2023-03-08T12:14:33;15.05;;;6.35;;
70420;SDS011;57848;51.938;15.520;2023-03-08T12:17:04;12.50;;;5.33;;
70420;SDS011;57848;51.938;15.520;2023-03-08T12:25:08;14.10;;;5.20;;
70420;SDS011;57848;51.938;15.520;2023-03-08T12:28:03;16.65;;;6.07;;
70420;SDS011;57848;51.938;15.520;2023-03-08T12:33:19;14.88;;;6.32;;
70420;SDS011;57848;51.938;15.520;2023-03-08T12:35:52;18.50;;;6.60;;
70420;SDS011;57848;51.938;15.520;2023-03-08T12:38:29;13.68;;;6.43;;
70420;SDS011;57848;51.938;15.520;2023-03-08T12:40:55;11.25;;;5.38;;
70420;SDS011;57848;51.938;15.520;2023-03-08T12:48:18;16.80;;;6.70;;
70420;SDS011;57848;51.938;15.520;2023-03-08T12:50:55;13.57;;;6.30;;
70420;SDS011;57848;51.938;15.520;2023-03-08T12:56:04;13.10;;;5.50;;
70420;SDS011;57848;51.938;15.520;2023-03-08T12:58:30;16.05;;;5.65;;
70420;SDS011;57848;51.938;15.520;2023-03-08T13:01:01;17.70;;;7.03;;
70420;SDS011;57848;51.938;15.520;2023-03-08T13:03:51;15.90;;;7.23;;
70420;SDS011;57848;51.938;15.520;2023-03-08T13:08:45;13.13;;;6.33;;
70420;SDS011;57848;51.938;15.520;2023-03-08T13:11:19;12.60;;;5.38;;
70420;SDS011;57848;51.938;15.520;2023-03-08T13:13:50;13.10;;;6.00;;
70420;SDS011;57848;51.938;15.520;2023-03-08T13:16:21;14.05;;;5.80;;
70420;SDS011;57848;51.938;15.520;2023-03-08T13:21:48;14.38;;;6.10;;
70420;SDS011;57848;51.938;15.520;2023-03-08T13:27:13;17.10;;;6.43;;
70420;SDS011;57848;51.938;15.520;2023-03-08T13:29:45;11.95;;;5.60;;
70420;SDS011;57848;51.938;15.520;2023-03-08T13:32:18;12.82;;;6.30;;
70420;SDS011;57848;51.938;15.520;2023-03-08T13:35:01;16.67;;;6.72;;
70420;SDS011;57848;51.938;15.520;2023-03-08T13:37:28;13.32;;;6.28;;
70420;SDS011;57848;51.938;15.520;2023-03-08T13:39:55;12.63;;;5.87;;
70420;SDS011;57848;51.938;15.520;2023-03-08T13:42:23;12.85;;;5.65;;
70420;SDS011;57848;51.938;15.520;2023-03-08T13:44:51;13.98;;;5.72;;
70420;SDS011;57848;51.938;15.520;2023-03-08T13:47:22;15.73;;;6.75;;
70420;SDS011;57848;51.938;15.520;2023-03-08T13:49:49;15.02;;;6.15;;
70420;SDS011;57848;51.938;15.520;2023-03-08T13:52:18;13.50;;;6.47;;
70420;SDS011;57848;51.938;15.520;2023-03-08T13:54:55;13.25;;;6.05;;
70420;SDS011;57848;51.938;15.520;2023-03-08T13:57:24;14.00;;;5.97;;
70420;SDS011;57848;51.938;15.520;2023-03-08T13:59:55;15.10;;;6.20;;
70420;SDS011;57848;51.938;15.520;2023-03-08T14:02:24;14.60;;;7.15;;
70420;SDS011;57848;51.938;15.520;2023-03-08T14:04:51;14.93;;;7.93;;
70420;SDS011;57848;51.938;15.520;2023-03-08T14:07:21;18.80;;;7.53;;
70420;SDS011;57848;51.938;15.520;2023-03-08T14:09:47;14.07;;;7.00;;
70420;SDS011;57848;51.938;15.520;2023-03-08T14:12:14;14.73;;;6.43;;
70420;SDS011;57848;51.938;15.520;2023-03-08T14:14:42;12.57;;;6.17;;
70420;SDS011;57848;51.938;15.520;2023-03-08T14:17:23;16.35;;;6.72;;
70420;SDS011;57848;51.938;15.520;2023-03-08T14:19:57;13.60;;;6.60;;
70420;SDS011;57848;51.938;15.520;2023-03-08T14:22:25;13.35;;;6.43;;
70420;SDS011;57848;51.938;15.520;2023-03-08T14:24:53;13.93;;;6.68;;
70420;SDS011;57848;51.938;15.520;2023-03-08T14:30:11;15.70;;;7.28;;
70420;SDS011;57848;51.938;15.520;2023-03-08T14:35:37;15.48;;;7.38;;
70420;SDS011;57848;51.938;15.520;2023-03-08T14:38:16;15.70;;;7.38;;
70420;SDS011;57848;51.938;15.520;2023-03-08T14:40:47;18.67;;;8.37;;
70420;SDS011;57848;51.938;15.520;2023-03-08T14:43:15;18.75;;;8.05;;
70420;SDS011;57848;51.938;15.520;2023-03-08T14:45:50;16.25;;;7.95;;
70420;SDS011;57848;51.938;15.520;2023-03-08T14:53:24;20.30;;;9.07;;
70420;SDS011;57848;51.938;15.520;2023-03-08T14:56:21;24.02;;;9.73;;
70420;SDS011;57848;51.938;15.520;2023-03-08T14:58:46;21.30;;;9.88;;
70420;SDS011;57848;51.938;15.520;2023-03-08T15:01:27;21.60;;;10.00;;
70420;SDS011;57848;51.938;15.520;2023-03-08T15:03:58;29.60;;;14.80;;
70420;SDS011;57848;51.938;15.520;2023-03-08T15:06:27;29.40;;;13.13;;
70420;SDS011;57848;51.938;15.520;2023-03-08T15:08:55;21.90;;;9.57;;
70420;SDS011;57848;51.938;15.520;2023-03-08T15:11:22;21.95;;;9.48;;
70420;SDS011;57848;51.938;15.520;2023-03-08T15:13:47;14.40;;;6.60;;
70420;SDS011;57848;51.938;15.520;2023-03-08T15:16:13;17.70;;;7.38;;
70420;SDS011;57848;51.938;15.520;2023-03-08T15:18:39;16.50;;;7.30;;
70420;SDS011;57848;51.938;15.520;2023-03-08T15:21:04;16.33;;;7.37;;
70420;SDS011;57848;51.938;15.520;2023-03-08T15:23:31;13.70;;;5.85;;
70420;SDS011;57848;51.938;15.520;2023-03-08T15:25:59;10.90;;;4.88;;
70420;SDS011;57848;51.938;15.520;2023-03-08T15:28:25;17.10;;;6.57;;
70420;SDS011;57848;51.938;15.520;2023-03-08T15:30:51;15.83;;;6.03;;
70420;SDS011;57848;51.938;15.520;2023-03-08T15:33:18;13.48;;;5.88;;
70420;SDS011;57848;51.938;15.520;2023-03-08T15:35:44;11.50;;;5.15;;
70420;SDS011;57848;51.938;15.520;2023-03-08T15:38:13;11.45;;;4.05;;
70420;SDS011;57848;51.938;15.520;2023-03-08T15:40:40;10.23;;;5.07;;
70420;SDS011;57848;51.938;15.520;2023-03-08T15:43:06;12.43;;;5.03;;
70420;SDS011;57848;51.938;15.520;2023-03-08T15:45:32;10.32;;;4.05;;
70420;SDS011;57848;51.938;15.520;2023-03-08T15:48:01;12.07;;;5.17;;
70420;SDS011;57848;51.938;15.520;2023-03-08T15:50:31;9.70;;;4.45;;
70420;SDS011;57848;51.938;15.520;2023-03-08T15:52:58;11.70;;;4.60;;
70420;SDS011;57848;51.938;15.520;2023-03-08T15:55:25;8.90;;;3.63;;
70420;SDS011;57848;51.938;15.520;2023-03-08T15:57:52;8.93;;;2.87;;